sensor_id;sensor_type;location;lat;lon;timestamp;pressure;altitude;pressure_sealevel;temperature;humidity
11395;BME280;5753;54.402;10.220;2023-04-07T00:02:09;101950.75;;;13.57;34.61
11395;BME280;5753;54.402;10.220;2023-04-07T00:04:36;101949.28;;;14.12;33.92
11395;BME280;5753;54.402;10.220;2023-04-07T00:07:02;101955.03;;;13.55;34.91
11395;BME280;5753;54.402;10.220;2023-04-07T00:09:28;101960.41;;;13.64;35.00
11395;BME280;5753;54.402;10.220;2023-04-07T00:11:54;101950.25;;;13.33;35.35
11395;BME280;5753;54.402;10.220;2023-04-07T00:14:21;101958.81;;;14.13;34.04
11395;BME280;5753;54.402;10.220;2023-04-07T00:16:47;101961.59;;;13.78;34.70
11395;BME280;5753;54.402;10.220;2023-04-07T00:19:13;101954.56;;;13.34;35.53
11395;BME280;5753;54.402;10.220;2023-04-07T00:21:39;101957.78;;;14.05;34.58
11395;BME280;5753;54.402;10.220;2023-04-07T00:24:06;101965.97;;;13.81;34.85
11395;BME280;5753;54.402;10.220;2023-04-07T00:26:32;101964.63;;;13.21;35.62
11395;BME280;5753;54.402;10.220;2023-04-07T00:28:59;101954.66;;;13.37;35.70
11395;BME280;5753;54.402;10.220;2023-04-07T00:31:25;101959.88;;;13.40;35.44
11395;BME280;5753;54.402;10.220;2023-04-07T00:33:51;101964.94;;;12.65;36.67
11395;BME280;5753;54.402;10.220;2023-04-07T00:36:18;101964.19;;;13.78;34.71
11395;BME280;5753;54.402;10.220;2023-04-07T00:38:44;101953.28;;;13.54;35.11
11395;BME280;5753;54.402;10.220;2023-04-07T00:41:10;101954.22;;;13.18;35.75
11395;BME280;5753;54.402;10.220;2023-04-07T00:43:36;101957.94;;;13.30;35.89
11395;BME280;5753;54.402;10.220;2023-04-07T00:46:02;101953.25;;;13.16;35.59
11395;BME280;5753;54.402;10.220;2023-04-07T00:48:29;101953.75;;;13.75;34.98
11395;BME280;5753;54.402;10.220;2023-04-07T00:50:56;101956.97;;;13.65;35.08
11395;BME280;5753;54.402;10.220;2023-04-07T00:53:22;101956.13;;;13.66;35.28
11395;BME280;5753;54.402;10.220;2023-04-07T00:55:48;101960.56;;;13.31;35.99
11395;BME280;5753;54.402;10.220;2023-04-07T00:58:15;101964.44;;;12.78;36.83
11395;BME280;5753;54.402;10.220;2023-04-07T01:00:48;101961.31;;;13.66;35.54
11395;BME280;5753;54.402;10.220;2023-04-07T01:03:32;101957.53;;;13.14;36.45
11395;BME280;5753;54.402;10.220;2023-04-07T01:06:01;101964.88;;;13.31;36.11
11395;BME280;5753;54.402;10.220;2023-04-07T01:11:27;101962.53;;;13.43;35.89
11395;BME280;5753;54.402;10.220;2023-04-07T01:13:57;101959.28;;;13.51;35.60
11395;BME280;5753;54.402;10.220;2023-04-07T01:16:36;101962.44;;;13.77;35.31
11395;BME280;5753;54.402;10.220;2023-04-07T01:21:55;101960.22;;;13.17;35.76
11395;BME280;5753;54.402;10.220;2023-04-07T01:29:48;101963.50;;;13.87;34.67
11395;BME280;5753;54.402;10.220;2023-04-07T01:32:17;101969.28;;;13.00;36.15
11395;BME280;5753;54.402;10.220;2023-04-07T01:34:47;101964.59;;;13.58;35.13
11395;BME280;5753;54.402;10.220;2023-04-07T01:37:15;101959.75;;;13.73;34.88
11395;BME280;5753;54.402;10.220;2023-04-07T01:39:42;101971.88;;;13.35;35.40
11395;BME280;5753;54.402;10.220;2023-04-07T01:42:09;101976.22;;;13.01;36.24
11395;BME280;5753;54.402;10.220;2023-04-07T01:44:36;101977.31;;;12.43;37.63
11395;BME280;5753;54.402;10.220;2023-04-07T01:47:04;101973.41;;;12.59;37.20
11395;BME280;5753;54.402;10.220;2023-04-07T01:49:31;101968.00;;;13.17;35.88
11395;BME280;5753;54.402;10.220;2023-04-07T01:51:59;101972.41;;;12.52;37.38
11395;BME280;5753;54.402;10.220;2023-04-07T01:54:25;101967.94;;;12.80;37.17
11395;BME280;5753;54.402;10.220;2023-04-07T01:56:53;101974.06;;;11.87;38.33
11395;BME280;5753;54.402;10.220;2023-04-07T01:59:19;101972.81;;;13.04;36.55
11395;BME280;5753;54.402;10.220;2023-04-07T02:01:45;101972.94;;;13.08;36.75
11395;BME280;5753;54.402;10.220;2023-04-07T02:04:31;101975.19;;;12.95;36.68
11395;BME280;5753;54.402;10.220;2023-04-07T02:07:07;101971.63;;;12.89;36.61
11395;BME280;5753;54.402;10.220;2023-04-07T02:09:37;101973.34;;;12.89;36.89
11395;BME280;5753;54.402;10.220;2023-04-07T02:12:04;101973.22;;;12.51;37.51
11395;BME280;5753;54.402;10.220;2023-04-07T02:14:34;101971.47;;;12.50;37.46
11395;BME280;5753;54.402;10.220;2023-04-07T02:17:02;101980.44;;;12.30;38.22
11395;BME280;5753;54.402;10.220;2023-04-07T02:19:29;101980.38;;;13.29;35.80
11395;BME280;5753;54.402;10.220;2023-04-07T02:21:55;101973.00;;;13.11;36.09
11395;BME280;5753;54.402;10.220;2023-04-07T02:24:22;101975.13;;;12.58;37.30
11395;BME280;5753;54.402;10.220;2023-04-07T02:26:48;101975.78;;;13.19;36.57
11395;BME280;5753;54.402;10.220;2023-04-07T02:29:14;101981.31;;;13.33;35.82
11395;BME280;5753;54.402;10.220;2023-04-07T02:31:41;101984.66;;;11.96;38.95
11395;BME280;5753;54.402;10.220;2023-04-07T02:34:07;101983.28;;;12.74;37.35
11395;BME280;5753;54.402;10.220;2023-04-07T02:36:33;101983.56;;;12.84;37.19
11395;BME280;5753;54.402;10.220;2023-04-07T02:39:02;101984.53;;;12.55;37.83
11395;BME280;5753;54.402;10.220;2023-04-07T02:41:29;101991.44;;;12.56;37.55
11395;BME280;5753;54.402;10.220;2023-04-07T02:43:55;101985.34;;;13.21;36.46
11395;BME280;5753;54.402;10.220;2023-04-07T02:46:21;101991.59;;;13.30;36.04
11395;BME280;5753;54.402;10.220;2023-04-07T02:48:47;101995.69;;;13.21;36.28
11395;BME280;5753;54.402;10.220;2023-04-07T02:51:13;101994.34;;;13.03;36.64
11395;BME280;5753;54.402;10.220;2023-04-07T02:53:40;102002.19;;;12.71;37.00
11395;BME280;5753;54.402;10.220;2023-04-07T02:56:06;102002.16;;;13.04;36.60
11395;BME280;5753;54.402;10.220;2023-04-07T02:58:32;101999.91;;;12.82;36.88
11395;BME280;5753;54.402;10.220;2023-04-07T03:00:58;102009.50;;;12.54;37.23
11395;BME280;5753;54.402;10.220;2023-04-07T03:03:24;101994.25;;;13.33;35.43
11395;BME280;5753;54.402;10.220;2023-04-07T03:05:51;102003.25;;;12.78;36.62
11395;BME280;5753;54.402;10.220;2023-04-07T03:08:17;102006.63;;;12.77;36.63
11395;BME280;5753;54.402;10.220;2023-04-07T03:10:43;102004.56;;;12.64;36.87
11395;BME280;5753;54.402;10.220;2023-04-07T03:13:09;102004.78;;;12.08;38.08
11395;BME280;5753;54.402;10.220;2023-04-07T03:15:37;102012.22;;;12.27;37.58
11395;BME280;5753;54.402;10.220;2023-04-07T03:18:03;102012.16;;;12.26;37.89
11395;BME280;5753;54.402;10.220;2023-04-07T03:20:29;102012.22;;;12.59;37.08
11395;BME280;5753;54.402;10.220;2023-04-07T03:22:56;102011.06;;;11.86;38.50
11395;BME280;5753;54.402;10.220;2023-04-07T03:25:22;102011.66;;;11.51;39.34
11395;BME280;5753;54.402;10.220;2023-04-07T03:27:48;102006.97;;;11.94;38.92
11395;BME280;5753;54.402;10.220;2023-04-07T03:30:14;102015.22;;;11.27;40.51
11395;BME280;5753;54.402;10.220;2023-04-07T03:32:41;102012.88;;;11.35;40.08
11395;BME280;5753;54.402;10.220;2023-04-07T03:35:07;102013.53;;;10.28;42.13
11395;BME280;5753;54.402;10.220;2023-04-07T03:37:33;102009.38;;;10.81;41.87
11395;BME280;5753;54.402;10.220;2023-04-07T03:40:00;102013.81;;;11.92;39.56
11395;BME280;5753;54.402;10.220;2023-04-07T03:42:26;102013.25;;;11.76;39.63
11395;BME280;5753;54.402;10.220;2023-04-07T03:44:53;102010.63;;;12.01;39.72
11395;BME280;5753;54.402;10.220;2023-04-07T03:47:19;102007.56;;;12.79;37.72
11395;BME280;5753;54.402;10.220;2023-04-07T03:49:45;102013.78;;;12.22;38.97
11395;BME280;5753;54.402;10.220;2023-04-07T03:52:11;102013.06;;;11.96;39.73
11395;BME280;5753;54.402;10.220;2023-04-07T03:54:37;102020.22;;;11.23;40.74
11395;BME280;5753;54.402;10.220;2023-04-07T03:57:04;102032.06;;;11.16;41.67
11395;BME280;5753;54.402;10.220;2023-04-07T03:59:30;102028.56;;;11.70;40.29
11395;BME280;5753;54.402;10.220;2023-04-07T04:01:56;102039.31;;;11.01;41.75
11395;BME280;5753;54.402;10.220;2023-04-07T04:04:23;102036.50;;;11.47;40.68
11395;BME280;5753;54.402;10.220;2023-04-07T04:06:52;102042.84;;;12.14;39.05
11395;BME280;5753;54.402;10.220;2023-04-07T04:09:18;102051.97;;;11.20;41.45
11395;BME280;5753;54.402;10.220;2023-04-07T04:11:45;102048.88;;;11.84;39.71
11395;BME280;5753;54.402;10.220;2023-04-07T04:14:11;102051.81;;;11.16;41.95
11395;BME280;5753;54.402;10.220;2023-04-07T04:16:38;102046.91;;;10.72;42.77
11395;BME280;5753;54.402;10.220;2023-04-07T04:19:04;102053.19;;;10.55;43.31
11395;BME280;5753;54.402;10.220;2023-04-07T04:21:30;102050.69;;;11.08;42.31
11395;BME280;5753;54.402;10.220;2023-04-07T04:23:56;102055.84;;;11.08;42.62
11395;BME280;5753;54.402;10.220;2023-04-07T04:26:22;102053.81;;;10.73;42.99
11395;BME280;5753;54.402;10.220;2023-04-07T04:28:51;102069.28;;;10.48;44.46
11395;BME280;5753;54.402;10.220;2023-04-07T04:31:18;102061.50;;;10.72;44.08
11395;BME280;5753;54.402;10.220;2023-04-07T04:33:44;102074.63;;;10.08;45.95
11395;BME280;5753;54.402;10.220;2023-04-07T04:36:11;102076.53;;;11.34;43.55
11395;BME280;5753;54.402;10.220;2023-04-07T04:38:37;102076.75;;;11.41;42.59
11395;BME280;5753;54.402;10.220;2023-04-07T04:41:03;102081.25;;;12.02;41.64
11395;BME280;5753;54.402;10.220;2023-04-07T04:43:29;102081.84;;;11.66;42.09
11395;BME280;5753;54.402;10.220;2023-04-07T04:45:56;102084.59;;;11.18;43.54
11395;BME280;5753;54.402;10.220;2023-04-07T04:48:22;102075.66;;;10.35;45.29
11395;BME280;5753;54.402;10.220;2023-04-07T04:50:48;102087.72;;;10.36;46.11
11395;BME280;5753;54.402;10.220;2023-04-07T04:53:15;102092.31;;;9.56;48.17
11395;BME280;5753;54.402;10.220;2023-04-07T04:55:41;102090.59;;;11.17;44.84
11395;BME280;5753;54.402;10.220;2023-04-07T04:58:12;102094.41;;;11.03;45.14
11395;BME280;5753;54.402;10.220;2023-04-07T05:00:38;102096.41;;;11.12;44.88
11395;BME280;5753;54.402;10.220;2023-04-07T05:03:04;102094.59;;;11.87;43.38
11395;BME280;5753;54.402;10.220;2023-04-07T05:05:30;102102.41;;;10.17;47.74
11395;BME280;5753;54.402;10.220;2023-04-07T05:07:56;102091.59;;;10.48;47.44
11395;BME280;5753;54.402;10.220;2023-04-07T05:10:23;102095.41;;;11.33;45.17
11395;BME280;5753;54.402;10.220;2023-04-07T05:12:49;102098.84;;;11.85;43.82
11395;BME280;5753;54.402;10.220;2023-04-07T05:15:15;102103.97;;;10.82;46.20
11395;BME280;5753;54.402;10.220;2023-04-07T05:17:42;102112.31;;;10.51;47.60
11395;BME280;5753;54.402;10.220;2023-04-07T05:20:09;102108.81;;;10.96;46.31
11395;BME280;5753;54.402;10.220;2023-04-07T05:22:35;102112.88;;;10.42;48.00
11395;BME280;5753;54.402;10.220;2023-04-07T05:25:02;102114.47;;;11.12;45.99
11395;BME280;5753;54.402;10.220;2023-04-07T05:27:28;102120.63;;;11.15;45.73
11395;BME280;5753;54.402;10.220;2023-04-07T05:29:54;102117.81;;;11.34;45.36
11395;BME280;5753;54.402;10.220;2023-04-07T05:32:21;102119.13;;;10.49;47.59
11395;BME280;5753;54.402;10.220;2023-04-07T05:34:47;102127.53;;;10.91;46.82
11395;BME280;5753;54.402;10.220;2023-04-07T05:37:13;102127.59;;;11.70;45.23
11395;BME280;5753;54.402;10.220;2023-04-07T05:39:39;102134.66;;;10.98;46.45
11395;BME280;5753;54.402;10.220;2023-04-07T05:42:05;102134.50;;;11.71;45.34
11395;BME280;5753;54.402;10.220;2023-04-07T05:44:32;102134.66;;;11.49;45.56
11395;BME280;5753;54.402;10.220;2023-04-07T05:46:58;102135.78;;;10.82;47.58
11395;BME280;5753;54.402;10.220;2023-04-07T05:49:24;102141.84;;;12.40;44.43
11395;BME280;5753;54.402;10.220;2023-04-07T05:51:51;102141.53;;;11.48;46.20
11395;BME280;5753;54.402;10.220;2023-04-07T05:54:17;102145.03;;;11.77;45.68
11395;BME280;5753;54.402;10.220;2023-04-07T05:56:43;102149.06;;;11.42;46.60
11395;BME280;5753;54.402;10.220;2023-04-07T05:59:10;102144.50;;;11.35;47.02
11395;BME280;5753;54.402;10.220;2023-04-07T06:01:37;102154.25;;;11.69;46.57
11395;BME280;5753;54.402;10.220;2023-04-07T06:04:03;102150.56;;;11.10;47.96
11395;BME280;5753;54.402;10.220;2023-04-07T06:06:29;102153.84;;;11.31;47.47
11395;BME280;5753;54.402;10.220;2023-04-07T06:08:56;102164.75;;;11.23;46.58
11395;BME280;5753;54.402;10.220;2023-04-07T06:11:22;102161.22;;;12.25;45.04
11395;BME280;5753;54.402;10.220;2023-04-07T06:13:48;102166.16;;;12.76;43.79
11395;BME280;5753;54.402;10.220;2023-04-07T06:16:14;102165.16;;;13.33;42.28
11395;BME280;5753;54.402;10.220;2023-04-07T06:18:40;102166.31;;;13.12;42.51
11395;BME280;5753;54.402;10.220;2023-04-07T06:21:07;102165.72;;;12.91;42.86
11395;BME280;5753;54.402;10.220;2023-04-07T06:23:34;102176.00;;;12.29;44.56
11395;BME280;5753;54.402;10.220;2023-04-07T06:26:00;102175.09;;;13.17;42.40
11395;BME280;5753;54.402;10.220;2023-04-07T06:28:26;102178.34;;;13.76;41.30
11395;BME280;5753;54.402;10.220;2023-04-07T06:30:52;102186.59;;;12.67;42.90
11395;BME280;5753;54.402;10.220;2023-04-07T06:33:18;102180.94;;;12.79;43.18
11395;BME280;5753;54.402;10.220;2023-04-07T06:35:48;102180.94;;;13.76;42.02
11395;BME280;5753;54.402;10.220;2023-04-07T06:38:14;102184.44;;;14.52;39.99
11395;BME280;5753;54.402;10.220;2023-04-07T06:40:41;102190.91;;;13.61;41.62
11395;BME280;5753;54.402;10.220;2023-04-07T06:43:07;102191.28;;;12.79;42.94
11395;BME280;5753;54.402;10.220;2023-04-07T06:45:33;102200.38;;;12.96;42.40
11395;BME280;5753;54.402;10.220;2023-04-07T06:47:59;102205.50;;;12.95;42.10
11395;BME280;5753;54.402;10.220;2023-04-07T06:50:25;102199.66;;;14.01;40.87
11395;BME280;5753;54.402;10.220;2023-04-07T06:52:51;102205.88;;;14.07;40.14
11395;BME280;5753;54.402;10.220;2023-04-07T06:55:18;102205.41;;;13.21;40.85
11395;BME280;5753;54.402;10.220;2023-04-07T06:57:44;102205.44;;;13.89;39.13
11395;BME280;5753;54.402;10.220;2023-04-07T07:00:10;102208.69;;;14.96;38.22
11395;BME280;5753;54.402;10.220;2023-04-07T07:02:36;102205.91;;;15.31;37.33
11395;BME280;5753;54.402;10.220;2023-04-07T07:05:03;102216.53;;;15.93;36.58
11395;BME280;5753;54.402;10.220;2023-04-07T07:07:30;102219.03;;;15.87;36.25
11395;BME280;5753;54.402;10.220;2023-04-07T07:09:56;102212.19;;;14.56;37.87
11395;BME280;5753;54.402;10.220;2023-04-07T07:12:22;102215.44;;;15.32;36.65
11395;BME280;5753;54.402;10.220;2023-04-07T07:14:48;102225.13;;;15.89;35.70
11395;BME280;5753;54.402;10.220;2023-04-07T07:17:14;102222.72;;;15.51;35.64
11395;BME280;5753;54.402;10.220;2023-04-07T07:19:41;102226.00;;;15.41;36.15
11395;BME280;5753;54.402;10.220;2023-04-07T07:22:07;102226.97;;;14.23;37.93
11395;BME280;5753;54.402;10.220;2023-04-07T07:24:34;102232.88;;;14.17;37.30
11395;BME280;5753;54.402;10.220;2023-04-07T07:27:00;102225.94;;;15.36;36.12
11395;BME280;5753;54.402;10.220;2023-04-07T07:29:27;102226.66;;;14.86;36.42
11395;BME280;5753;54.402;10.220;2023-04-07T07:31:54;102240.69;;;15.39;36.24
11395;BME280;5753;54.402;10.220;2023-04-07T07:34:20;102231.81;;;16.27;34.89
11395;BME280;5753;54.402;10.220;2023-04-07T07:36:46;102238.78;;;15.76;35.40
11395;BME280;5753;54.402;10.220;2023-04-07T07:39:12;102242.09;;;17.54;32.44
11395;BME280;5753;54.402;10.220;2023-04-07T07:41:39;102241.53;;;14.17;36.84
11395;BME280;5753;54.402;10.220;2023-04-07T07:44:06;102249.16;;;15.29;35.17
11395;BME280;5753;54.402;10.220;2023-04-07T07:46:32;102240.28;;;16.13;34.29
11395;BME280;5753;54.402;10.220;2023-04-07T07:48:59;102244.34;;;15.98;33.35
11395;BME280;5753;54.402;10.220;2023-04-07T07:51:25;102249.44;;;15.44;34.78
11395;BME280;5753;54.402;10.220;2023-04-07T07:53:52;102245.75;;;16.32;33.89
11395;BME280;5753;54.402;10.220;2023-04-07T07:56:19;102254.63;;;17.07;32.77
11395;BME280;5753;54.402;10.220;2023-04-07T07:58:45;102253.59;;;16.34;33.48
11395;BME280;5753;54.402;10.220;2023-04-07T08:01:11;102248.38;;;15.80;33.36
11395;BME280;5753;54.402;10.220;2023-04-07T08:03:37;102258.09;;;15.43;34.93
11395;BME280;5753;54.402;10.220;2023-04-07T08:06:04;102253.22;;;18.40;31.12
11395;BME280;5753;54.402;10.220;2023-04-07T08:08:31;102266.41;;;16.20;34.26
11395;BME280;5753;54.402;10.220;2023-04-07T08:10:57;102270.66;;;16.71;33.97
11395;BME280;5753;54.402;10.220;2023-04-07T08:13:23;102269.25;;;17.75;32.36
11395;BME280;5753;54.402;10.220;2023-04-07T08:15:49;102267.81;;;16.01;35.20
11395;BME280;5753;54.402;10.220;2023-04-07T08:18:15;102279.59;;;16.32;34.29
11395;BME280;5753;54.402;10.220;2023-04-07T08:20:42;102273.44;;;16.27;34.16
11395;BME280;5753;54.402;10.220;2023-04-07T08:23:08;102273.91;;;16.03;35.39
11395;BME280;5753;54.402;10.220;2023-04-07T08:25:34;102266.94;;;16.01;34.52
11395;BME280;5753;54.402;10.220;2023-04-07T08:28:00;102271.97;;;15.45;36.43
11395;BME280;5753;54.402;10.220;2023-04-07T08:30:26;102275.66;;;16.04;35.72
11395;BME280;5753;54.402;10.220;2023-04-07T08:32:52;102282.91;;;16.22;35.38
11395;BME280;5753;54.402;10.220;2023-04-07T08:35:19;102284.81;;;16.34;35.22
11395;BME280;5753;54.402;10.220;2023-04-07T08:37:45;102284.63;;;14.85;37.68
11395;BME280;5753;54.402;10.220;2023-04-07T08:40:12;102283.78;;;15.71;36.06
11395;BME280;5753;54.402;10.220;2023-04-07T08:42:41;102289.88;;;16.25;35.73
11395;BME280;5753;54.402;10.220;2023-04-07T08:45:09;102285.75;;;16.98;35.73
11395;BME280;5753;54.402;10.220;2023-04-07T08:47:36;102286.09;;;16.06;36.08
11395;BME280;5753;54.402;10.220;2023-04-07T08:50:07;102293.75;;;16.51;35.15
11395;BME280;5753;54.402;10.220;2023-04-07T08:52:58;102293.88;;;16.06;35.84
11395;BME280;5753;54.402;10.220;2023-04-07T08:55:25;102292.47;;;16.23;34.52
11395;BME280;5753;54.402;10.220;2023-04-07T08:57:52;102296.66;;;15.65;36.22
11395;BME280;5753;54.402;10.220;2023-04-07T09:00:19;102294.91;;;14.80;37.48
11395;BME280;5753;54.402;10.220;2023-04-07T09:02:46;102300.38;;;14.94;38.07
11395;BME280;5753;54.402;10.220;2023-04-07T09:05:14;102290.25;;;15.50;36.71
11395;BME280;5753;54.402;10.220;2023-04-07T09:07:40;102301.81;;;15.62;36.86
11395;BME280;5753;54.402;10.220;2023-04-07T09:10:10;102300.47;;;14.98;39.35
11395;BME280;5753;54.402;10.220;2023-04-07T09:12:37;102294.13;;;16.20;37.12
11395;BME280;5753;54.402;10.220;2023-04-07T09:15:07;102296.72;;;16.73;37.28
11395;BME280;5753;54.402;10.220;2023-04-07T09:17:34;102303.09;;;16.38;38.75
11395;BME280;5753;54.402;10.220;2023-04-07T09:20:02;102290.66;;;15.68;39.63
11395;BME280;5753;54.402;10.220;2023-04-07T09:25:23;102295.06;;;16.79;37.37
11395;BME280;5753;54.402;10.220;2023-04-07T09:28:05;102304.84;;;14.26;41.81
11395;BME280;5753;54.402;10.220;2023-04-07T09:30:32;102295.41;;;15.93;40.24
11395;BME280;5753;54.402;10.220;2023-04-07T09:32:59;102295.13;;;15.77;38.89
11395;BME280;5753;54.402;10.220;2023-04-07T09:35:26;102295.25;;;15.83;37.62
11395;BME280;5753;54.402;10.220;2023-04-07T09:38:03;102293.63;;;15.44;38.23
11395;BME280;5753;54.402;10.220;2023-04-07T09:40:29;102301.13;;;16.22;37.76
11395;BME280;5753;54.402;10.220;2023-04-07T09:42:56;102310.66;;;16.22;35.98
11395;BME280;5753;54.402;10.220;2023-04-07T09:45:27;102301.03;;;16.16;36.12
11395;BME280;5753;54.402;10.220;2023-04-07T09:47:54;102305.06;;;17.12;35.09
11395;BME280;5753;54.402;10.220;2023-04-07T09:50:34;102292.09;;;17.20;34.58
11395;BME280;5753;54.402;10.220;2023-04-07T09:53:01;102296.22;;;17.77;33.49
11395;BME280;5753;54.402;10.220;2023-04-07T09:55:29;102293.28;;;18.42;31.69
11395;BME280;5753;54.402;10.220;2023-04-07T09:57:55;102296.38;;;17.95;31.70
11395;BME280;5753;54.402;10.220;2023-04-07T10:00:22;102294.53;;;17.03;34.48
11395;BME280;5753;54.402;10.220;2023-04-07T10:02:49;102287.47;;;16.38;35.95
11395;BME280;5753;54.402;10.220;2023-04-07T10:05:16;102296.34;;;17.89;33.78
11395;BME280;5753;54.402;10.220;2023-04-07T10:07:42;102299.53;;;15.81;35.71
11395;BME280;5753;54.402;10.220;2023-04-07T10:10:09;102296.88;;;16.29;36.05
11395;BME280;5753;54.402;10.220;2023-04-07T10:12:37;102291.53;;;18.44;33.29
11395;BME280;5753;54.402;10.220;2023-04-07T10:15:04;102304.16;;;15.98;36.86
11395;BME280;5753;54.402;10.220;2023-04-07T10:17:36;102301.75;;;16.63;36.78
11395;BME280;5753;54.402;10.220;2023-04-07T10:20:04;102301.41;;;16.41;37.03
11395;BME280;5753;54.402;10.220;2023-04-07T10:22:32;102296.22;;;15.89;36.98
11395;BME280;5753;54.402;10.220;2023-04-07T10:25:17;102296.84;;;18.53;33.54
11395;BME280;5753;54.402;10.220;2023-04-07T10:27:46;102308.50;;;17.90;34.43
11395;BME280;5753;54.402;10.220;2023-04-07T10:30:28;102306.19;;;16.15;36.67
11395;BME280;5753;54.402;10.220;2023-04-07T10:32:54;102309.13;;;16.36;37.64
11395;BME280;5753;54.402;10.220;2023-04-07T10:35:21;102308.59;;;16.57;37.48
11395;BME280;5753;54.402;10.220;2023-04-07T10:40:33;102307.03;;;16.12;37.87
11395;BME280;5753;54.402;10.220;2023-04-07T10:43:00;102310.00;;;15.40;38.53
11395;BME280;5753;54.402;10.220;2023-04-07T10:48:15;102306.44;;;15.79;37.70
11395;BME280;5753;54.402;10.220;2023-04-07T10:50:43;102307.06;;;16.14;37.31
11395;BME280;5753;54.402;10.220;2023-04-07T10:53:14;102308.50;;;17.87;35.12
11395;BME280;5753;54.402;10.220;2023-04-07T11:03:41;102316.28;;;15.51;38.31
11395;BME280;5753;54.402;10.220;2023-04-07T11:06:12;102308.41;;;15.93;36.12
11395;BME280;5753;54.402;10.220;2023-04-07T11:08:46;102310.56;;;18.24;34.10
11395;BME280;5753;54.402;10.220;2023-04-07T11:11:35;102308.25;;;16.93;35.94
11395;BME280;5753;54.402;10.220;2023-04-07T11:14:05;102308.88;;;16.75;34.18
11395;BME280;5753;54.402;10.220;2023-04-07T11:16:40;102310.84;;;16.91;34.27
11395;BME280;5753;54.402;10.220;2023-04-07T11:19:06;102311.69;;;18.60;31.90
11395;BME280;5753;54.402;10.220;2023-04-07T11:21:33;102315.41;;;17.06;31.64
11395;BME280;5753;54.402;10.220;2023-04-07T11:23:59;102323.00;;;18.59;30.79
11395;BME280;5753;54.402;10.220;2023-04-07T11:26:25;102317.72;;;17.56;32.53
11395;BME280;5753;54.402;10.220;2023-04-07T11:28:54;102322.06;;;17.54;32.39
11395;BME280;5753;54.402;10.220;2023-04-07T11:31:27;102327.47;;;17.71;31.03
11395;BME280;5753;54.402;10.220;2023-04-07T11:33:58;102327.47;;;15.92;33.49
11395;BME280;5753;54.402;10.220;2023-04-07T11:36:29;102325.84;;;17.08;32.10
11395;BME280;5753;54.402;10.220;2023-04-07T11:38:57;102320.69;;;16.00;34.61
11395;BME280;5753;54.402;10.220;2023-04-07T11:41:25;102326.59;;;18.70;31.83
11395;BME280;5753;54.402;10.220;2023-04-07T11:44:11;102321.53;;;18.99;31.98
11395;BME280;5753;54.402;10.220;2023-04-07T11:46:55;102319.16;;;20.74;29.31
11395;BME280;5753;54.402;10.220;2023-04-07T11:49:22;102321.28;;;17.66;32.77
11395;BME280;5753;54.402;10.220;2023-04-07T11:52:03;102327.63;;;17.89;32.05
11395;BME280;5753;54.402;10.220;2023-04-07T11:54:45;102319.72;;;18.91;31.26
11395;BME280;5753;54.402;10.220;2023-04-07T11:57:12;102330.81;;;17.60;31.92
11395;BME280;5753;54.402;10.220;2023-04-07T11:59:40;102328.47;;;17.11;33.29
11395;BME280;5753;54.402;10.220;2023-04-07T12:02:07;102329.19;;;17.69;33.20
11395;BME280;5753;54.402;10.220;2023-04-07T12:04:33;102349.72;;;17.46;33.86
11395;BME280;5753;54.402;10.220;2023-04-07T12:07:09;102341.56;;;19.00;31.74
11395;BME280;5753;54.402;10.220;2023-04-07T12:09:36;102341.66;;;19.23;31.34
11395;BME280;5753;54.402;10.220;2023-04-07T12:12:06;102343.19;;;18.83;30.65
11395;BME280;5753;54.402;10.220;2023-04-07T12:14:33;102335.47;;;19.00;30.53
11395;BME280;5753;54.402;10.220;2023-04-07T12:17:00;102339.25;;;19.84;29.67
11395;BME280;5753;54.402;10.220;2023-04-07T12:19:29;102341.91;;;20.13;29.22
11395;BME280;5753;54.402;10.220;2023-04-07T12:21:57;102348.03;;;20.59;28.32
11395;BME280;5753;54.402;10.220;2023-04-07T12:24:24;102347.94;;;19.65;30.46
11395;BME280;5753;54.402;10.220;2023-04-07T12:26:50;102350.34;;;19.16;30.63
11395;BME280;5753;54.402;10.220;2023-04-07T12:29:16;102342.75;;;20.71;28.71
11395;BME280;5753;54.402;10.220;2023-04-07T12:31:44;102351.50;;;20.70;28.44
11395;BME280;5753;54.402;10.220;2023-04-07T12:34:11;102342.94;;;22.21;26.34
11395;BME280;5753;54.402;10.220;2023-04-07T12:36:37;102344.84;;;21.99;26.82
11395;BME280;5753;54.402;10.220;2023-04-07T12:39:03;102345.34;;;20.97;27.34
11395;BME280;5753;54.402;10.220;2023-04-07T12:41:30;102350.38;;;21.51;27.36
11395;BME280;5753;54.402;10.220;2023-04-07T12:43:57;102342.56;;;22.62;25.94
11395;BME280;5753;54.402;10.220;2023-04-07T12:46:23;102349.78;;;22.41;26.00
11395;BME280;5753;54.402;10.220;2023-04-07T12:48:49;102351.19;;;21.65;27.03
11395;BME280;5753;54.402;10.220;2023-04-07T12:51:16;102341.09;;;23.83;24.31
11395;BME280;5753;54.402;10.220;2023-04-07T12:53:42;102341.22;;;24.32;24.29
11395;BME280;5753;54.402;10.220;2023-04-07T12:56:10;102349.50;;;21.52;26.28
11395;BME280;5753;54.402;10.220;2023-04-07T12:58:38;102354.44;;;22.00;25.06
11395;BME280;5753;54.402;10.220;2023-04-07T13:01:04;102352.94;;;21.63;25.53
11395;BME280;5753;54.402;10.220;2023-04-07T13:03:31;102343.19;;;22.89;24.80
11395;BME280;5753;54.402;10.220;2023-04-07T13:06:01;102348.94;;;23.23;24.69
11395;BME280;5753;54.402;10.220;2023-04-07T13:08:27;102348.19;;;24.83;23.50
11395;BME280;5753;54.402;10.220;2023-04-07T13:10:54;102351.56;;;23.24;24.54
11395;BME280;5753;54.402;10.220;2023-04-07T13:13:21;102341.94;;;20.50;28.10
11395;BME280;5753;54.402;10.220;2023-04-07T13:15:47;102340.63;;;22.83;25.84
11395;BME280;5753;54.402;10.220;2023-04-07T13:18:14;102345.47;;;22.35;25.92
11395;BME280;5753;54.402;10.220;2023-04-07T13:20:40;102342.75;;;23.26;25.17